Time;durP1;ratioP1;P1;durP2;ratioP2;P2;SDS_P1;SDS_P2;PMS_P1;PMS_P2;Temp;Humidity;BMP_temperature;BMP_pressure;BME280_temperature;BME280_humidity;BME280_pressure;Samples;Min_cycle;Max_cycle;Signal;HPM_P1;HPM_P2
2023/05/30 00:01:15;;;;;;;13.38;3.90;;;12.40;99.90;;;;;;5095109;28;20038;-56
2023/05/30 00:03:44;;;;;;;14.48;3.72;;;12.40;99.90;;;;;;5081419;28;20472;-57
2023/05/30 00:06:11;;;;;;;9.57;2.97;;;12.40;99.90;;;;;;5074730;28;20081;-57
2023/05/30 00:08:37;;;;;;;12.13;3.40;;;12.30;99.90;;;;;;5074733;28;20044;-57
2023/05/30 00:11:03;;;;;;;15.25;4.10;;;12.30;99.90;;;;;;5072913;28;20028;-58
2023/05/30 00:13:28;;;;;;;12.18;3.72;;;12.30;99.90;;;;;;5074257;28;20040;-57
2023/05/30 00:15:57;;;;;;;11.32;3.03;;;12.30;99.90;;;;;;5074240;28;20037;-57
2023/05/30 00:18:23;;;;;;;13.05;3.42;;;12.30;99.90;;;;;;5074011;28;20417;-57
2023/05/30 00:20:50;;;;;;;12.02;2.97;;;12.40;99.90;;;;;;5074526;28;20044;-57
2023/05/30 00:23:16;;;;;;;12.57;3.75;;;12.40;99.90;;;;;;5074564;28;20047;-57
2023/05/30 00:25:42;;;;;;;9.98;3.80;;;12.30;99.90;;;;;;5073922;28;20032;-57
2023/05/30 00:28:07;;;;;;;12.68;3.10;;;12.30;99.90;;;;;;5074047;28;20485;-56
2023/05/30 00:30:36;;;;;;;12.65;3.47;;;12.30;99.90;;;;;;5073894;28;20071;-56
2023/05/30 00:33:02;;;;;;;9.63;3.08;;;12.30;99.90;;;;;;5074029;28;20040;-56
2023/05/30 00:35:28;;;;;;;12.38;3.22;;;12.30;99.90;;;;;;5073948;28;20044;-57
2023/05/30 00:37:53;;;;;;;11.50;3.30;;;12.20;99.90;;;;;;5072628;28;20487;-57
2023/05/30 00:40:19;;;;;;;12.90;4.45;;;12.20;99.90;;;;;;5074018;28;20055;-56
2023/05/30 00:42:44;;;;;;;11.55;3.13;;;12.20;99.90;;;;;;5088345;28;20040;-56
2023/05/30 00:45:10;;;;;;;15.32;3.25;;;12.10;99.90;;;;;;5094538;28;20535;-56
2023/05/30 00:47:36;;;;;;;7.28;2.97;;;12.10;99.90;;;;;;5126997;27;20067;-58
2023/05/30 00:50:03;;;;;;;11.52;4.25;;;12.10;99.90;;;;;;5094176;28;20068;-56
2023/05/30 00:52:29;;;;;;;13.00;3.92;;;12.10;99.90;;;;;;5094219;28;20028;-57
2023/05/30 00:54:56;;;;;;;15.43;3.63;;;12.10;99.90;;;;;;5094034;28;20438;-56
2023/05/30 00:57:22;;;;;;;13.27;3.60;;;12.10;99.90;;;;;;5094042;28;20089;-56
2023/05/30 00:59:48;;;;;;;16.77;3.35;;;12.10;99.90;;;;;;5093952;28;20036;-56
2023/05/30 01:02:16;;;;;;;10.50;2.80;;;12.10;99.90;;;;;;5093867;28;20046;-57
2023/05/30 01:04:42;;;;;;;14.43;3.00;;;12.10;99.90;;;;;;5088281;28;20046;-56
2023/05/30 01:07:10;;;;;;;11.43;2.95;;;12.00;99.90;;;;;;5093610;28;20036;-57
2023/05/30 01:09:37;;;;;;;11.35;2.83;;;12.10;99.90;;;;;;5093747;28;20043;-56
2023/05/30 01:12:29;;;;;;;12.10;2.83;;;12.10;99.90;;;;;;5086234;28;20037;-56
2023/05/30 01:15:06;;;;;;;15.85;3.28;;;12.10;99.90;;;;;;5073075;28;20542;-58
2023/05/30 01:18:07;;;;;;;13.20;2.85;;;12.10;99.90;;;;;;5073190;28;20086;-57
2023/05/30 01:20:44;;;;;;;12.18;3.17;;;12.10;99.90;;;;;;5065007;28;20093;-57
2023/05/30 01:23:23;;;;;;;11.10;3.65;;;12.10;99.90;;;;;;5093144;28;20043;-57
2023/05/30 01:26:40;;;;;;;10.60;3.10;;;12.10;99.90;;;;;;5093234;28;20040;-57
2023/05/30 01:29:10;;;;;;;9.65;3.90;;;12.00;99.90;;;;;;5093418;28;20043;-57
2023/05/30 01:31:36;;;;;;;13.15;3.53;;;12.10;99.90;;;;;;5093412;28;20040;-57
2023/05/30 01:34:02;;;;;;;12.65;3.45;;;12.10;99.90;;;;;;5093931;28;20040;-57
2023/05/30 01:36:30;;;;;;;20.08;4.75;;;12.00;99.90;;;;;;5093138;28;20028;-57
2023/05/30 01:38:56;;;;;;;11.95;3.35;;;12.00;99.90;;;;;;5093591;28;20051;-57
2023/05/30 01:41:45;;;;;;;14.55;3.55;;;12.10;99.90;;;;;;5092886;28;20486;-57
2023/05/30 01:44:25;;;;;;;14.75;3.70;;;12.10;99.90;;;;;;5093204;28;20806;-57
2023/05/30 01:46:59;;;;;;;;;;;12.10;99.90;;;;;;5126023;27;20048;-57
2023/05/30 01:49:41;;;;;;;9.43;3.05;;;12.10;99.90;;;;;;5093349;28;19920;-57
2023/05/30 01:52:17;;;;;;;15.27;3.97;;;12.10;99.90;;;;;;5067068;28;20082;-56
2023/05/30 01:54:47;;;;;;;10.05;3.13;;;12.10;99.90;;;;;;5092917;28;20036;-57
2023/05/30 01:57:15;;;;;;;15.57;3.35;;;12.00;99.90;;;;;;5092935;28;20046;-57
2023/05/30 01:59:42;;;;;;;11.32;2.90;;;12.00;99.90;;;;;;5092938;28;20044;-58
2023/05/30 02:02:09;;;;;;;14.52;4.40;;;12.10;99.90;;;;;;5092628;28;20104;-56
2023/05/30 02:04:35;;;;;;;12.15;4.32;;;12.00;99.90;;;;;;5092588;28;20043;-57
2023/05/30 02:07:02;;;;;;;10.23;3.15;;;12.00;99.90;;;;;;5092476;28;20036;-57
2023/05/30 02:09:27;;;;;;;15.35;3.42;;;12.10;99.90;;;;;;5092650;28;20440;-57
2023/05/30 02:11:53;;;;;;;15.50;3.90;;;12.10;99.90;;;;;;5084963;28;20048;-57
2023/05/30 02:14:19;;;;;;;14.93;4.32;;;12.10;99.90;;;;;;5072214;28;20383;-58
2023/05/30 02:16:45;;;;;;;12.02;3.42;;;12.10;99.90;;;;;;5072284;28;20051;-58
2023/05/30 02:19:12;;;;;;;11.23;3.80;;;12.00;99.90;;;;;;5072361;28;20044;-58
2023/05/30 02:21:38;;;;;;;13.18;3.90;;;12.00;99.90;;;;;;5072463;28;20037;-57
2023/05/30 02:24:04;;;;;;;9.50;3.50;;;12.00;99.90;;;;;;5072241;28;20040;-58
2023/05/30 02:26:30;;;;;;;10.65;3.17;;;11.90;99.90;;;;;;5071965;28;20040;-57
2023/05/30 02:28:56;;;;;;;15.48;3.47;;;12.00;99.90;;;;;;5072070;28;20502;-58
2023/05/30 02:31:21;;;;;;;10.43;3.50;;;12.00;99.90;;;;;;5071035;28;20425;-57
2023/05/30 02:33:47;;;;;;;15.07;3.83;;;12.00;99.90;;;;;;5071033;28;20028;-57
2023/05/30 02:36:13;;;;;;;9.20;3.25;;;12.00;99.90;;;;;;5072077;28;20032;-57
2023/05/30 02:38:38;;;;;;;13.13;3.53;;;12.10;99.90;;;;;;5072016;28;20524;-57
2023/05/30 02:41:04;;;;;;;11.48;2.95;;;12.10;99.90;;;;;;5072012;28;20497;-57
2023/05/30 02:43:30;;;;;;;14.60;3.50;;;12.00;99.90;;;;;;5071866;28;20115;-57
2023/05/30 02:45:55;;;;;;;16.55;3.80;;;12.10;99.90;;;;;;5071841;28;20041;-56
2023/05/30 02:48:21;;;;;;;10.27;3.70;;;12.10;99.90;;;;;;5071831;28;20465;-56
2023/05/30 02:50:47;;;;;;;16.38;3.65;;;12.10;99.90;;;;;;5071711;28;20041;-57
2023/05/30 02:53:13;;;;;;;14.27;3.63;;;12.10;99.90;;;;;;5071920;28;20036;-56
2023/05/30 02:55:42;;;;;;;10.77;3.22;;;12.10;99.90;;;;;;5071565;28;20076;-56
2023/05/30 02:58:08;;;;;;;9.35;3.38;;;12.10;99.90;;;;;;5070793;28;20055;-56
2023/05/30 03:00:34;;;;;;;13.07;3.85;;;12.10;99.90;;;;;;5071682;28;20040;-56
2023/05/30 03:03:00;;;;;;;19.65;4.20;;;12.20;99.90;;;;;;5071824;28;20093;-56
2023/05/30 03:05:26;;;;;;;13.15;3.70;;;12.10;99.90;;;;;;5071726;28;20044;-57
2023/05/30 03:07:51;;;;;;;15.35;3.40;;;12.10;99.90;;;;;;5071593;28;20475;-57
2023/05/30 03:10:17;;;;;;;11.75;3.40;;;12.10;99.90;;;;;;5071822;28;20036;-57
2023/05/30 03:12:43;;;;;;;17.50;3.65;;;12.10;99.90;;;;;;5071809;28;20875;-57
2023/05/30 03:15:09;;;;;;;13.30;3.50;;;12.10;99.90;;;;;;5071331;28;20020;-58
2023/05/30 03:17:35;;;;;;;17.08;3.45;;;12.10;99.90;;;;;;5071300;28;20490;-58
2023/05/30 03:20:01;;;;;;;16.38;5.00;;;12.10;99.90;;;;;;5070394;28;20055;-56
2023/05/30 03:22:26;;;;;;;11.48;3.50;;;12.20;99.90;;;;;;5071515;28;20548;-57
2023/05/30 03:24:52;;;;;;;15.50;4.20;;;12.20;99.90;;;;;;5071340;28;20041;-57
2023/05/30 03:27:17;;;;;;;12.73;3.60;;;12.10;99.90;;;;;;5071416;28;20036;-57
2023/05/30 03:29:43;;;;;;;8.27;3.50;;;12.10;99.90;;;;;;5071412;28;20509;-57
2023/05/30 03:32:09;;;;;;;18.77;4.25;;;12.10;99.90;;;;;;5087949;28;20127;-56
2023/05/30 03:34:35;;;;;;;15.75;4.07;;;12.20;99.90;;;;;;5091804;28;20381;-56
2023/05/30 03:37:00;;;;;;;13.70;3.97;;;12.10;99.90;;;;;;5091619;28;20032;-56
2023/05/30 03:39:26;;;;;;;12.02;3.60;;;12.20;99.90;;;;;;5091584;28;20051;-57
2023/05/30 03:41:52;;;;;;;11.98;4.82;;;12.10;99.90;;;;;;5091339;28;20405;-57
2023/05/30 03:44:17;;;;;;;13.00;3.83;;;12.10;99.90;;;;;;5090396;28;20070;-57
2023/05/30 03:46:44;;;;;;;18.17;4.25;;;12.20;99.90;;;;;;5095163;28;20056;-58
2023/05/30 03:49:10;;;;;;;13.63;3.65;;;12.20;99.90;;;;;;5095304;28;20132;-57
2023/05/30 03:51:36;;;;;;;23.35;4.10;;;12.20;99.90;;;;;;5095354;28;20127;-57
2023/05/30 03:54:01;;;;;;;11.65;3.33;;;12.10;99.90;;;;;;5095069;28;20044;-57
2023/05/30 03:56:27;;;;;;;15.68;4.07;;;12.10;99.90;;;;;;5094997;28;20032;-57
2023/05/30 03:58:53;;;;;;;10.07;3.38;;;12.20;99.90;;;;;;5095057;28;20032;-58
2023/05/30 04:01:18;;;;;;;12.25;3.92;;;12.20;99.90;;;;;;5094862;28;20032;-57
2023/05/30 04:03:45;;;;;;;13.20;3.75;;;12.20;99.90;;;;;;5094658;28;20035;-57
2023/05/30 04:06:11;;;;;;;13.20;3.80;;;12.10;99.90;;;;;;5093755;28;20047;-56
2023/05/30 04:08:37;;;;;;;12.20;3.63;;;12.20;99.90;;;;;;5093257;28;20047;-56
2023/05/30 04:11:04;;;;;;;15.70;4.85;;;12.20;99.90;;;;;;5093863;28;20040;-57
2023/05/30 04:13:29;;;;;;;14.38;3.55;;;12.20;99.90;;;;;;5075498;28;20033;-57
2023/05/30 04:15:55;;;;;;;13.68;3.50;;;12.20;99.90;;;;;;5074494;28;20032;-57
2023/05/30 04:18:20;;;;;;;15.05;3.83;;;12.20;99.90;;;;;;5074202;28;20028;-57
2023/05/30 04:20:46;;;;;;;9.70;3.22;;;12.20;99.90;;;;;;5074341;28;20124;-57
2023/05/30 04:23:12;;;;;;;10.82;3.45;;;12.20;99.90;;;;;;5074445;28;20483;-56
2023/05/30 04:25:38;;;;;;;12.32;4.38;;;12.20;99.90;;;;;;5074433;28;20036;-57
2023/05/30 04:28:05;;;;;;;10.93;3.45;;;12.20;99.90;;;;;;5074183;28;20394;-57
2023/05/30 04:30:33;;;;;;;17.30;3.58;;;12.20;99.90;;;;;;5073907;28;20463;-57
2023/05/30 04:32:59;;;;;;;13.63;3.90;;;12.30;99.90;;;;;;5074199;28;20051;-56
2023/05/30 04:35:25;;;;;;;15.55;4.07;;;12.40;99.90;;;;;;5072625;28;20044;-57
2023/05/30 04:37:53;;;;;;;11.02;3.78;;;12.30;99.90;;;;;;5074208;28;20044;-57
2023/05/30 04:40:19;;;;;;;14.70;4.10;;;12.30;99.90;;;;;;5073870;28;20044;-57
2023/05/30 04:42:51;;;;;;;14.77;3.75;;;12.30;99.90;;;;;;5073811;28;20093;-57
2023/05/30 04:45:18;;;;;;;13.82;3.30;;;12.30;99.90;;;;;;5074003;28;20115;-57
2023/05/30 04:47:47;;;;;;;14.52;3.67;;;12.30;99.90;;;;;;5073545;28;20056;-57
2023/05/30 04:50:17;;;;;;;11.85;3.63;;;12.30;99.90;;;;;;5073670;28;20124;-57
2023/05/30 04:52:43;;;;;;;12.13;3.72;;;12.40;99.90;;;;;;5074220;28;20028;-58
2023/05/30 04:55:10;;;;;;;16.42;4.35;;;12.30;99.90;;;;;;5082226;28;20034;-59
2023/05/30 04:57:38;;;;;;;17.52;3.42;;;12.40;99.90;;;;;;5094073;28;20040;-57
2023/05/30 05:00:09;;;;;;;10.45;3.90;;;12.40;99.90;;;;;;5094620;28;20486;-57
2023/05/30 05:02:37;;;;;;;12.15;3.28;;;12.40;99.90;;;;;;5094624;28;20044;-58
2023/05/30 05:05:02;;;;;;;13.23;3.20;;;12.40;99.90;;;;;;5094440;28;20035;-58
2023/05/30 05:07:28;;;;;;;13.50;3.15;;;12.40;99.90;;;;;;5094656;28;20047;-58
2023/05/30 05:09:53;;;;;;;13.95;3.17;;;12.40;99.90;;;;;;5094078;28;20486;-58
2023/05/30 05:12:19;;;;;;;9.05;3.22;;;12.40;99.90;;;;;;5084905;28;20064;-58
2023/05/30 05:14:46;;;;;;;19.25;4.88;;;12.40;99.90;;;;;;5072810;28;20093;-58
2023/05/30 05:17:12;;;;;;;10.27;3.40;;;12.40;99.90;;;;;;5074010;28;20078;-58
2023/05/30 05:19:37;;;;;;;10.50;3.47;;;12.40;99.90;;;;;;5072448;28;20040;-58
2023/05/30 05:22:04;;;;;;;5.93;2.63;;;12.40;99.90;;;;;;5073605;28;20371;-58
2023/05/30 05:24:29;;;;;;;12.90;3.42;;;12.40;99.90;;;;;;5072427;28;20040;-58
2023/05/30 05:26:55;;;;;;;16.45;3.22;;;12.40;99.90;;;;;;5073782;28;20029;-57
2023/05/30 05:29:21;;;;;;;10.82;3.88;;;12.30;99.90;;;;;;5073892;28;20111;-58
2023/05/30 05:31:46;;;;;;;9.15;2.83;;;12.30;99.90;;;;;;5073687;28;20079;-57
2023/05/30 05:34:12;;;;;;;12.88;2.70;;;12.40;99.90;;;;;;5072644;28;20047;-58
2023/05/30 05:36:38;;;;;;;12.10;3.60;;;12.40;99.90;;;;;;5073473;28;20490;-58
2023/05/30 05:39:03;;;;;;;13.88;3.67;;;12.40;99.90;;;;;;5121003;27;20048;-57
2023/05/30 05:41:29;;;;;;;6.20;2.78;;;12.40;99.90;;;;;;5093899;28;20032;-58
2023/05/30 05:43:55;;;;;;;13.52;3.22;;;12.40;99.90;;;;;;5093814;28;20497;-58
2023/05/30 05:46:20;;;;;;;9.55;2.92;;;12.40;99.90;;;;;;5093457;28;20043;-58
2023/05/30 05:48:46;;;;;;;12.05;3.67;;;12.50;99.90;;;;;;5093228;28;20105;-59
2023/05/30 05:51:12;;;;;;;9.35;3.25;;;12.40;99.90;;;;;;5090670;28;20044;-58
2023/05/30 05:53:37;;;;;;;15.65;2.83;;;12.50;99.90;;;;;;5077906;28;20040;-57
2023/05/30 05:56:03;;;;;;;9.35;2.75;;;12.50;99.90;;;;;;5073400;28;20039;-58
2023/05/30 05:58:28;;;;;;;10.52;3.47;;;12.50;99.90;;;;;;5069713;28;20455;-58
2023/05/30 06:00:54;;;;;;;12.60;3.92;;;12.50;99.90;;;;;;5066874;28;20041;-57
2023/05/30 06:03:20;;;;;;;11.68;3.20;;;12.50;99.90;;;;;;5063344;28;20086;-59
2023/05/30 06:05:46;;;;;;;16.30;2.85;;;12.50;99.90;;;;;;5072900;28;20375;-58
2023/05/30 06:08:11;;;;;;;12.00;2.88;;;12.50;99.90;;;;;;5072923;28;20035;-59
2023/05/30 06:10:37;;;;;;;4.72;2.10;;;12.50;99.90;;;;;;5072952;28;20363;-58
2023/05/30 06:13:03;;;;;;;7.32;2.17;;;12.60;99.90;;;;;;5072916;28;20055;-58
2023/05/30 06:15:28;;;;;;;7.57;2.17;;;12.50;99.90;;;;;;5072946;28;20064;-58
2023/05/30 06:17:54;;;;;;;6.13;2.00;;;12.60;99.90;;;;;;5060994;28;20047;-58
2023/05/30 06:20:20;;;;;;;7.25;1.80;;;12.60;99.90;;;;;;5055205;28;20157;-57
2023/05/30 06:22:46;;;;;;;7.30;2.35;;;12.60;99.90;;;;;;5058546;28;20186;-58
2023/05/30 06:25:12;;;;;;;7.18;2.15;;;12.60;99.90;;;;;;5061331;28;20051;-58
2023/05/30 06:27:37;;;;;;;7.05;1.98;;;12.60;99.90;;;;;;5065032;28;20098;-58
2023/05/30 06:30:05;;;;;;;4.10;1.70;;;12.70;99.90;;;;;;5066988;28;20494;-58
2023/05/30 06:32:31;;;;;;;5.20;1.70;;;12.60;99.90;;;;;;5072984;28;20040;-58
2023/05/30 06:34:57;;;;;;;7.00;2.10;;;12.70;99.90;;;;;;5072312;28;20058;-58
2023/05/30 06:37:22;;;;;;;8.85;2.25;;;12.70;99.90;;;;;;5065897;28;20032;-58
2023/05/30 06:39:48;;;;;;;6.50;2.15;;;12.70;99.90;;;;;;5071948;28;20044;-59
2023/05/30 06:42:13;;;;;;;4.63;1.90;;;12.80;99.90;;;;;;5072011;28;20036;-58
2023/05/30 06:44:39;;;;;;;7.80;2.38;;;12.70;99.90;;;;;;5072375;28;20090;-58
2023/05/30 06:47:06;;;;;;;6.75;2.05;;;12.80;99.90;;;;;;5072124;28;20080;-58
2023/05/30 06:49:31;;;;;;;5.97;2.55;;;12.80;99.90;;;;;;5068800;28;20039;-58
2023/05/30 06:51:57;;;;;;;7.50;2.38;;;12.70;99.90;;;;;;5062517;28;20120;-58
2023/05/30 06:54:23;;;;;;;5.57;2.28;;;12.70;99.90;;;;;;5072113;28;20421;-58
2023/05/30 06:56:48;;;;;;;8.30;2.17;;;12.70;99.90;;;;;;5072202;28;20143;-58
2023/05/30 06:59:14;;;;;;;4.43;2.28;;;12.80;99.90;;;;;;5076788;28;20075;-58
2023/05/30 07:01:40;;;;;;;6.25;2.22;;;12.80;99.90;;;;;;5091670;28;20067;-57
2023/05/30 07:04:05;;;;;;;10.30;2.70;;;12.80;99.90;;;;;;5087071;28;20040;-58
2023/05/30 07:06:31;;;;;;;5.60;2.30;;;12.80;99.90;;;;;;5071994;28;20147;-58
2023/05/30 07:08:57;;;;;;;9.13;2.40;;;12.80;99.90;;;;;;5081543;28;20036;-57
2023/05/30 07:11:23;;;;;;;6.57;2.15;;;13.00;99.90;;;;;;5072086;28;20032;-58
2023/05/30 07:13:48;;;;;;;7.90;2.08;;;12.90;99.90;;;;;;5092323;28;20089;-57
2023/05/30 07:16:14;;;;;;;5.75;1.98;;;12.90;99.90;;;;;;5065684;28;20032;-57
2023/05/30 07:18:40;;;;;;;4.18;1.95;;;13.00;99.90;;;;;;5071608;28;20428;-58
2023/05/30 07:21:07;;;;;;;7.75;2.28;;;13.00;99.90;;;;;;5074519;28;20572;-58
2023/05/30 07:23:34;;;;;;;6.80;3.00;;;13.00;99.90;;;;;;5075298;28;20045;-58
2023/05/30 07:26:00;;;;;;;4.50;2.38;;;13.10;99.90;;;;;;5075557;28;20032;-57
2023/05/30 07:28:26;;;;;;;6.78;1.65;;;13.10;99.90;;;;;;5075461;28;20383;-58
2023/05/30 07:30:51;;;;;;;10.55;2.20;;;13.00;99.90;;;;;;5075514;28;20037;-58
2023/05/30 07:33:17;;;;;;;11.32;2.35;;;13.10;99.90;;;;;;5075488;28;20052;-58
2023/05/30 07:35:43;;;;;;;4.40;2.13;;;13.10;99.90;;;;;;5075231;28;20056;-57
2023/05/30 07:38:10;;;;;;;7.00;2.30;;;13.10;99.90;;;;;;5075465;28;20047;-58
2023/05/30 07:40:35;;;;;;;8.25;2.95;;;13.10;99.90;;;;;;5071283;28;20046;-57
2023/05/30 07:43:01;;;;;;;5.30;2.13;;;13.20;99.90;;;;;;5077381;28;20390;-57
2023/05/30 07:45:26;;;;;;;6.35;2.10;;;13.30;99.90;;;;;;5080977;28;20043;-57
2023/05/30 07:47:52;;;;;;;8.50;1.92;;;13.30;99.90;;;;;;5075108;28;20048;-57
2023/05/30 07:50:18;;;;;;;6.53;2.00;;;13.30;99.90;;;;;;5073583;28;20532;-57
2023/05/30 07:52:44;;;;;;;5.40;2.28;;;13.40;99.90;;;;;;5074982;28;20891;-57
2023/05/30 07:55:10;;;;;;;6.93;2.22;;;13.40;99.90;;;;;;5081541;28;20470;-56
2023/05/30 07:57:35;;;;;;;5.45;2.00;;;13.50;99.90;;;;;;5094780;28;20040;-56
2023/05/30 08:00:01;;;;;;;6.10;1.60;;;13.30;99.90;;;;;;5095261;28;20071;-56
2023/05/30 08:02:27;;;;;;;4.10;1.83;;;13.30;99.90;;;;;;5090055;28;20070;-56
2023/05/30 08:04:53;;;;;;;6.03;2.00;;;13.40;99.90;;;;;;5083179;28;20475;-56
2023/05/30 08:07:19;;;;;;;6.28;2.08;;;13.50;99.90;;;;;;5074641;28;20043;-56
2023/05/30 08:09:45;;;;;;;6.32;1.73;;;13.50;99.90;;;;;;5069704;28;20090;-56
2023/05/30 08:12:20;;;;;;;4.60;1.85;;;13.60;99.90;;;;;;5072211;28;20036;-57
2023/05/30 08:14:47;;;;;;;6.45;2.30;;;13.60;99.90;;;;;;5069406;28;20068;-56
2023/05/30 08:17:13;;;;;;;4.97;2.30;;;13.60;99.90;;;;;;5070453;28;20037;-56
2023/05/30 08:19:40;;;;;;;4.45;2.13;;;13.60;99.90;;;;;;5072411;28;20466;-56
2023/05/30 08:22:06;;;;;;;4.03;1.92;;;13.50;99.90;;;;;;5071144;28;20553;-56
2023/05/30 08:24:32;;;;;;;6.45;2.03;;;13.50;99.90;;;;;;5072734;28;20132;-56
2023/05/30 08:26:59;;;;;;;4.70;2.70;;;13.60;99.90;;;;;;5071990;28;20082;-57
2023/05/30 08:29:25;;;;;;;6.60;2.78;;;13.60;99.90;;;;;;5073528;28;20544;-57
2023/05/30 08:31:50;;;;;;;5.03;2.15;;;13.60;99.90;;;;;;5072668;28;20028;-57
2023/05/30 08:34:16;;;;;;;6.18;2.35;;;13.70;99.90;;;;;;5106210;28;20043;-57
2023/05/30 08:36:42;;;;;;;2.50;1.40;;;13.90;99.90;;;;;;5073506;28;20072;-57
2023/05/30 08:39:07;;;;;;;5.05;1.65;;;14.10;99.90;;;;;;5071333;28;20055;-57
2023/05/30 08:41:33;;;;;;;4.63;1.30;;;14.30;99.90;;;;;;5075365;28;20052;-57
2023/05/30 08:43:59;;;;;;;2.55;1.27;;;14.60;99.90;;;;;;5073250;28;20040;-58
2023/05/30 08:46:25;;;;;;;3.47;1.20;;;14.70;99.90;;;;;;5066968;28;20040;-57
2023/05/30 08:48:51;;;;;;;1.48;0.80;;;14.80;99.90;;;;;;5073236;28;20060;-56
2023/05/30 08:51:19;;;;;;;2.15;1.20;;;14.80;99.90;;;;;;5073501;28;20059;-56
2023/05/30 08:53:51;;;;;;;0.90;0.70;;;14.90;99.90;;;;;;5061167;28;20112;-57
2023/05/30 08:56:34;;;;;;;0.70;0.50;;;14.70;99.90;;;;;;5054194;28;20086;-57
2023/05/30 08:59:02;;;;;;;1.42;0.55;;;14.70;99.90;;;;;;5068180;28;20025;-57
2023/05/30 09:01:29;;;;;;;1.20;0.68;;;14.70;99.90;;;;;;5072174;28;20041;-57
2023/05/30 09:03:57;;;;;;;0.45;0.45;;;14.70;99.90;;;;;;5092313;28;20486;-58
2023/05/30 09:06:24;;;;;;;2.65;0.90;;;14.80;99.90;;;;;;5058663;28;20044;-57
2023/05/30 09:08:51;;;;;;;1.80;0.75;;;14.90;99.90;;;;;;5067657;28;20033;-58
2023/05/30 09:11:19;;;;;;;2.30;1.55;;;14.90;99.90;;;;;;5061877;28;20049;-58
2023/05/30 09:13:45;;;;;;;1.50;0.82;;;14.90;99.90;;;;;;5065724;28;20560;-58
2023/05/30 09:16:12;;;;;;;0.55;0.43;;;14.90;99.90;;;;;;5058029;28;20121;-58
2023/05/30 09:18:38;;;;;;;2.25;0.65;;;14.90;99.90;;;;;;5068933;28;20032;-59
2023/05/30 09:21:04;;;;;;;1.83;1.10;;;15.00;99.90;;;;;;5069677;28;20047;-58
2023/05/30 09:23:29;;;;;;;0.80;0.50;;;15.20;99.90;;;;;;5073486;28;20051;-58
2023/05/30 09:25:59;;;;;;;1.73;0.98;;;15.20;99.90;;;;;;5073449;28;20040;-58
2023/05/30 09:28:26;;;;;;;3.03;1.33;;;15.00;99.90;;;;;;5073126;28;20028;-58
2023/05/30 09:30:53;;;;;;;1.35;0.70;;;14.90;99.90;;;;;;5073313;28;20072;-59
2023/05/30 09:33:18;;;;;;;2.17;1.02;;;14.90;99.90;;;;;;5073071;28;20505;-58
2023/05/30 09:35:46;;;;;;;0.90;0.65;;;14.80;99.90;;;;;;5073337;28;20029;-58
2023/05/30 09:38:15;;;;;;;1.20;0.65;;;14.80;99.90;;;;;;5073033;28;20105;-58
2023/05/30 09:40:41;;;;;;;1.63;0.82;;;14.80;99.90;;;;;;5071648;28;20098;-58
2023/05/30 09:43:07;;;;;;;4.38;2.55;;;14.80;99.90;;;;;;5071404;28;20045;-58
2023/05/30 09:45:32;;;;;;;1.45;0.73;;;14.70;99.90;;;;;;5073166;28;20491;-58
2023/05/30 09:47:58;;;;;;;1.95;0.60;;;14.70;99.90;;;;;;5072883;28;20051;-58
2023/05/30 09:50:25;;;;;;;0.88;0.60;;;14.60;99.90;;;;;;5072889;28;20043;-58
2023/05/30 09:52:56;;;;;;;1.38;0.70;;;14.60;99.90;;;;;;5070198;28;20049;-58
2023/05/30 09:55:24;;;;;;;2.35;0.77;;;14.60;99.90;;;;;;5071871;28;20043;-59
2023/05/30 09:57:51;;;;;;;1.00;0.93;;;14.60;99.90;;;;;;5073174;28;20036;-58
2023/05/30 10:00:22;;;;;;;3.13;0.93;;;14.60;99.90;;;;;;5073001;28;20044;-59
2023/05/30 10:02:56;;;;;;;1.88;1.15;;;14.60;99.90;;;;;;5072905;28;20051;-59
2023/05/30 10:05:24;;;;;;;2.55;1.00;;;14.70;99.90;;;;;;5073181;28;20040;-58
2023/05/30 10:07:53;;;;;;;1.77;0.88;;;14.80;99.90;;;;;;5072854;28;20436;-58
2023/05/30 10:10:20;;;;;;;2.03;0.80;;;15.00;99.90;;;;;;5064517;28;20048;-57
2023/05/30 10:12:53;;;;;;;1.48;0.90;;;15.10;99.90;;;;;;5074685;28;20047;-58
2023/05/30 10:15:21;;;;;;;2.00;0.80;;;14.90;99.90;;;;;;5080108;28;20111;-58
2023/05/30 10:18:07;;;;;;;3.60;1.00;;;14.90;99.90;;;;;;5125111;27;20123;-57
2023/05/30 10:20:43;;;;;;;2.05;0.73;;;14.80;99.90;;;;;;5083402;28;20090;-58
2023/05/30 10:23:11;;;;;;;1.70;0.70;;;14.80;99.90;;;;;;5076699;28;20458;-58
2023/05/30 10:25:42;;;;;;;1.75;0.90;;;14.70;99.90;;;;;;5092063;28;20051;-57
2023/05/30 10:28:15;;;;;;;2.70;0.73;;;14.60;99.90;;;;;;5070982;28;20552;-57
2023/05/30 10:30:41;;;;;;;1.35;0.80;;;14.70;99.90;;;;;;5066946;28;20352;-58
2023/05/30 10:33:09;;;;;;;1.00;0.90;;;14.70;99.90;;;;;;5066038;28;20040;-57
2023/05/30 10:35:35;;;;;;;1.90;0.70;;;14.70;99.90;;;;;;5070049;28;20039;-57
2023/05/30 10:38:04;;;;;;;1.70;0.90;;;14.70;99.90;;;;;;5070788;28;20029;-56
2023/05/30 10:40:48;;;;;;;1.25;0.82;;;14.80;99.90;;;;;;5069776;28;20040;-57
2023/05/30 10:43:47;;;;;;;0.90;0.80;;;14.90;99.90;;;;;;5060668;28;20072;-59
2023/05/30 10:46:25;;;;;;;1.60;0.70;;;15.00;99.90;;;;;;5066231;28;20067;-58
2023/05/30 10:49:01;;;;;;;2.75;1.00;;;15.00;99.90;;;;;;5063044;28;20550;-57
2023/05/30 10:51:26;;;;;;;1.90;0.90;;;15.00;99.90;;;;;;5071514;28;20055;-58
2023/05/30 10:53:52;;;;;;;2.67;1.25;;;15.00;99.90;;;;;;5071425;28;20036;-57
2023/05/30 10:56:38;;;;;;;1.10;1.00;;;15.00;99.90;;;;;;5071192;28;20029;-58
2023/05/30 10:59:12;;;;;;;2.35;1.27;;;14.90;99.90;;;;;;5066405;28;20433;-58
2023/05/30 11:01:38;;;;;;;2.88;1.20;;;15.00;99.90;;;;;;5071212;28;20437;-57
2023/05/30 11:04:12;;;;;;;1.60;0.98;;;15.00;99.90;;;;;;5071168;28;20068;-56
2023/05/30 11:06:45;;;;;;;2.00;0.90;;;15.10;99.90;;;;;;5064657;28;20584;-56
2023/05/30 11:09:15;;;;;;;2.08;1.30;;;15.10;99.90;;;;;;5071193;28;20055;-58
2023/05/30 11:11:41;;;;;;;2.58;1.15;;;15.10;99.90;;;;;;5065303;28;20075;-57
2023/05/30 11:14:09;;;;;;;2.22;0.93;;;15.10;99.90;;;;;;5071318;28;20068;-58
2023/05/30 11:16:48;;;;;;;1.10;0.95;;;15.20;99.90;;;;;;5070992;28;20112;-58
2023/05/30 11:19:14;;;;;;;2.90;0.93;;;15.20;99.90;;;;;;5071790;28;20059;-58
2023/05/30 11:22:00;;;;;;;1.17;1.08;;;15.20;99.90;;;;;;5071278;28;20036;-58
2023/05/30 11:24:26;;;;;;;1.77;0.93;;;15.20;99.90;;;;;;5071163;28;20076;-58
2023/05/30 11:26:56;;;;;;;1.17;1.08;;;15.20;99.90;;;;;;5071263;28;20440;-58
2023/05/30 11:29:31;;;;;;;2.40;1.13;;;15.30;99.90;;;;;;5070066;28;20036;-58
2023/05/30 11:31:57;;;;;;;2.85;0.98;;;15.30;99.90;;;;;;5070861;28;20051;-58
2023/05/30 11:34:23;;;;;;;0.82;0.82;;;15.40;99.90;;;;;;5071146;28;20037;-58
2023/05/30 11:36:49;;;;;;;2.35;1.10;;;15.40;99.90;;;;;;5070886;28;20111;-56
2023/05/30 11:39:18;;;;;;;0.90;0.90;;;15.50;99.90;;;;;;5070980;28;20398;-57
2023/05/30 11:41:44;;;;;;;;;;;15.50;99.90;;;;;;5071343;28;20044;-56
2023/05/30 11:44:10;;;;;;;2.88;1.05;;;15.50;99.90;;;;;;5071096;28;20293;-57
2023/05/30 11:46:35;;;;;;;2.05;1.33;;;15.40;99.90;;;;;;5071134;28;20131;-57
2023/05/30 11:49:04;;;;;;;1.73;1.20;;;15.40;99.90;;;;;;5070450;28;20115;-57
2023/05/30 11:51:31;;;;;;;2.20;1.27;;;15.40;99.90;;;;;;5071278;28;20127;-57
2023/05/30 11:54:01;;;;;;;1.95;1.10;;;15.50;99.90;;;;;;5103405;28;20040;-57
2023/05/30 11:56:29;;;;;;;1.80;1.17;;;15.50;99.90;;;;;;5071059;28;20047;-57
2023/05/30 11:58:58;;;;;;;1.40;0.95;;;15.50;99.90;;;;;;5070999;28;20089;-57
2023/05/30 12:01:25;;;;;;;0.98;0.93;;;15.50;99.90;;;;;;5070769;28;20039;-57
2023/05/30 12:03:53;;;;;;;0.95;0.80;;;15.60;99.90;;;;;;5089687;28;20478;-58
2023/05/30 12:06:18;;;;;;;1.00;0.90;;;15.60;99.90;;;;;;5084937;28;20063;-58
2023/05/30 12:08:50;;;;;;;0.82;0.77;;;15.70;99.90;;;;;;5094509;28;20036;-58
2023/05/30 12:11:16;;;;;;;1.38;0.75;;;15.60;99.90;;;;;;5126279;27;20113;-58
2023/05/30 12:13:42;;;;;;;1.55;0.85;;;15.70;99.90;;;;;;5074582;28;20021;-58
2023/05/30 12:16:10;;;;;;;1.67;1.00;;;15.70;99.90;;;;;;5106740;28;20040;-58
2023/05/30 12:18:36;;;;;;;3.10;1.00;;;15.70;99.90;;;;;;5073994;28;20047;-58
2023/05/30 12:21:02;;;;;;;1.38;0.98;;;15.70;99.90;;;;;;5074068;28;20033;-58
2023/05/30 12:23:29;;;;;;;1.40;0.90;;;15.70;99.90;;;;;;5073911;28;20401;-57
2023/05/30 12:25:55;;;;;;;2.25;1.02;;;15.60;99.90;;;;;;5074309;28;20449;-58
2023/05/30 12:28:24;;;;;;;2.70;0.93;;;15.90;99.90;;;;;;5073846;28;20032;-57
2023/05/30 12:30:54;;;;;;;1.27;0.68;;;16.20;99.90;;;;;;5073863;28;20040;-56
2023/05/30 12:33:21;;;;;;;4.07;0.90;;;16.30;99.90;;;;;;5074098;28;20097;-58
2023/05/30 12:35:52;;;;;;;3.45;1.00;;;16.10;99.90;;;;;;5113660;27;20048;-56
2023/05/30 12:38:19;;;;;;;1.85;1.08;;;16.20;99.90;;;;;;5093755;28;20036;-57
2023/05/30 12:40:48;;;;;;;2.83;1.05;;;16.10;99.90;;;;;;5093993;28;20040;-57
2023/05/30 12:43:15;;;;;;;1.27;0.93;;;16.10;99.90;;;;;;5094152;28;20142;-57
2023/05/30 12:45:45;;;;;;;1.40;1.00;;;16.20;99.90;;;;;;5094187;28;20047;-57